createdAt,value
2018-07-14T00:00:44.270Z,21.10
2018-07-14T00:03:24.961Z,21.10
2018-07-14T00:06:05.561Z,21.00
2018-07-14T00:08:33.765Z,20.90
2018-07-14T00:11:13.978Z,21.00
2018-07-14T00:13:42.180Z,21.00
2018-07-14T00:16:22.511Z,20.90
2018-07-14T00:19:03.071Z,21.00
2018-07-14T00:21:38.432Z,21.00
2018-07-14T00:24:18.550Z,21.00
2018-07-14T00:26:59.140Z,21.00
2018-07-14T00:29:39.733Z,21.00
2018-07-14T00:32:07.977Z,20.80
2018-07-14T00:34:36.158Z,20.80
2018-07-14T00:37:17.076Z,20.80
2018-07-14T00:39:57.670Z,20.60
2018-07-14T00:42:38.192Z,20.60
2018-07-14T00:45:06.428Z,20.50
2018-07-14T00:47:46.690Z,20.50
2018-07-14T00:50:27.331Z,20.60
2018-07-14T00:53:07.974Z,20.50
2018-07-14T00:55:36.152Z,20.50
2018-07-14T00:58:11.633Z,20.50
2018-07-14T01:00:39.858Z,20.40
2018-07-14T01:03:20.013Z,20.40
2018-07-14T01:05:48.236Z,20.40
2018-07-14T01:08:18.047Z,20.40
2018-07-14T01:10:58.339Z,20.40
2018-07-14T01:13:26.547Z,20.40
2018-07-14T01:16:06.992Z,20.40
2018-07-14T01:18:47.876Z,20.30
2018-07-14T01:21:16.083Z,20.20
2018-07-14T01:23:44.321Z,20.20
2018-07-14T01:26:15.531Z,20.20
2018-07-14T01:28:43.737Z,20.20
2018-07-14T01:31:24.477Z,20.10
2018-07-14T01:34:05.116Z,20.20
2018-07-14T01:36:45.588Z,20.20
2018-07-14T01:39:13.784Z,20.10
2018-07-14T01:41:54.273Z,20.00
2018-07-14T01:44:34.953Z,20.00
2018-07-14T01:47:15.570Z,20.00
2018-07-14T01:49:43.775Z,20.10
2018-07-14T01:52:24.008Z,20.00
2018-07-14T01:55:04.566Z,20.00
2018-07-14T01:57:45.200Z,19.90
2018-07-14T02:00:25.256Z,19.90
2018-07-14T02:02:53.481Z,19.90
2018-07-14T02:05:21.702Z,19.80
2018-07-14T02:07:49.908Z,19.70
2018-07-14T02:10:30.499Z,19.60
2018-07-14T02:12:58.728Z,19.30
2018-07-14T02:15:26.924Z,19.00
2018-07-14T02:18:07.747Z,19.20
2018-07-14T02:20:48.427Z,19.30
2018-07-14T02:23:18.673Z,19.30
2018-07-14T02:25:58.878Z,19.40
2018-07-14T02:28:28.429Z,19.40
2018-07-14T02:30:56.723Z,19.30
2018-07-14T02:33:37.886Z,19.30
2018-07-14T02:36:18.893Z,19.30
2018-07-14T02:38:59.757Z,19.30
2018-07-14T02:41:40.174Z,19.20
2018-07-14T02:44:08.374Z,19.20
2018-07-14T02:46:48.613Z,19.20
2018-07-14T02:49:16.819Z,19.30
2018-07-14T02:51:45.026Z,19.30
2018-07-14T02:54:13.218Z,19.30
2018-07-14T02:56:41.477Z,19.30
2018-07-14T02:59:22.387Z,19.20
2018-07-14T03:02:03.005Z,19.10
2018-07-14T03:04:43.766Z,19.10
2018-07-14T03:07:24.356Z,19.00
2018-07-14T03:10:05.003Z,19.00
2018-07-14T03:12:45.698Z,18.70
2018-07-14T03:15:26.234Z,18.80
2018-07-14T03:17:54.440Z,18.80
2018-07-14T03:20:32.049Z,18.60
2018-07-14T03:23:00.248Z,18.60
2018-07-14T03:25:29.269Z,18.60
2018-07-14T03:27:59.082Z,18.60
2018-07-14T03:30:39.283Z,18.60
2018-07-14T03:33:07.481Z,18.60
2018-07-14T03:35:35.745Z,18.50
2018-07-14T03:38:16.630Z,18.50
2018-07-14T03:40:45.942Z,18.50
2018-07-14T03:43:15.008Z,18.50
2018-07-14T03:45:43.177Z,18.50
2018-07-14T03:48:13.586Z,18.40
2018-07-14T03:50:42.501Z,18.40
2018-07-14T03:53:17.201Z,18.30
2018-07-14T03:55:57.309Z,18.30
2018-07-14T03:58:32.029Z,18.30
2018-07-14T04:01:12.762Z,18.30
2018-07-14T04:03:40.968Z,18.20
2018-07-14T04:06:13.150Z,18.30
2018-07-14T04:08:53.301Z,18.10
2018-07-14T04:11:25.022Z,18.00
2018-07-14T04:13:53.793Z,18.00
2018-07-14T04:16:34.425Z,18.10
2018-07-14T04:19:15.068Z,18.20
2018-07-14T04:21:55.701Z,18.20
2018-07-14T04:24:36.322Z,17.90
2018-07-14T04:27:16.934Z,18.00
2018-07-14T04:29:45.143Z,18.00
2018-07-14T04:32:25.717Z,18.00
2018-07-14T04:35:06.336Z,18.00
2018-07-14T04:37:46.971Z,18.00
2018-07-14T04:40:27.653Z,18.00
2018-07-14T04:42:55.874Z,18.10
2018-07-14T04:45:24.122Z,17.80
2018-07-14T04:47:55.974Z,17.80
2018-07-14T04:50:24.854Z,17.90
2018-07-14T04:53:05.296Z,18.10
2018-07-14T04:55:33.504Z,18.00
2018-07-14T04:58:06.469Z,18.00
2018-07-14T05:00:35.243Z,18.00
2018-07-14T05:03:15.576Z,17.90
2018-07-14T05:05:43.761Z,17.80
2018-07-14T05:08:24.127Z,17.80
2018-07-14T05:10:52.370Z,17.90
2018-07-14T05:13:32.478Z,18.10
2018-07-14T05:16:01.434Z,18.20
2018-07-14T05:18:33.435Z,18.30
2018-07-14T05:21:01.647Z,18.30
2018-07-14T05:23:31.097Z,18.20
2018-07-14T05:25:59.438Z,18.20
2018-07-14T05:28:40.032Z,18.20
2018-07-14T05:31:08.205Z,18.20
2018-07-14T05:33:37.195Z,18.10
2018-07-14T05:36:17.410Z,18.20
2018-07-14T05:38:58.143Z,18.30
2018-07-14T05:41:38.776Z,18.30
2018-07-14T05:44:19.585Z,18.10
2018-07-14T05:47:00.174Z,18.10
2018-07-14T05:49:40.786Z,18.30
2018-07-14T05:52:21.714Z,18.40
2018-07-14T05:55:02.126Z,18.50
2018-07-14T05:57:30.392Z,18.50
2018-07-14T06:00:10.517Z,18.50
2018-07-14T06:02:51.174Z,18.50
2018-07-14T06:05:31.861Z,18.60
2018-07-14T06:08:02.200Z,18.70
2018-07-14T06:10:30.494Z,18.80
2018-07-14T06:13:11.191Z,18.20
2018-07-14T06:15:51.693Z,18.30
2018-07-14T06:18:32.442Z,18.50
2018-07-14T06:21:00.635Z,18.50
2018-07-14T06:23:40.862Z,18.60
2018-07-14T06:26:21.557Z,18.70
2018-07-14T06:29:02.346Z,18.90
2018-07-14T06:31:33.885Z,19.00
2018-07-14T06:34:02.779Z,18.80
2018-07-14T06:36:43.460Z,18.90
2018-07-14T06:39:24.114Z,18.80
2018-07-14T06:42:04.939Z,18.80
2018-07-14T06:44:33.141Z,18.80
2018-07-14T06:47:03.112Z,18.80
2018-07-14T06:49:31.418Z,18.80
2018-07-14T06:52:12.212Z,19.00
2018-07-14T06:54:52.797Z,19.10
2018-07-14T06:57:21.015Z,19.10
2018-07-14T06:59:49.264Z,19.20
2018-07-14T07:02:30.079Z,19.10
2018-07-14T07:04:58.305Z,19.10
2018-07-14T07:07:29.130Z,19.10
2018-07-14T07:10:09.237Z,18.90
2018-07-14T07:12:37.727Z,18.80
2018-07-14T07:15:18.780Z,18.90
2018-07-14T07:17:47.033Z,19.00
2018-07-14T07:20:15.311Z,18.80
2018-07-14T07:22:56.069Z,18.60
2018-07-14T07:25:26.441Z,18.50
2018-07-14T07:27:54.679Z,18.60
2018-07-14T07:30:29.689Z,18.50
2018-07-14T07:32:58.132Z,18.60
2018-07-14T07:35:26.325Z,18.80
2018-07-14T07:38:08.394Z,19.00
2018-07-14T07:40:36.625Z,19.10
2018-07-14T07:43:17.598Z,19.20
2018-07-14T07:45:58.327Z,19.40
2018-07-14T07:48:38.944Z,19.40
2018-07-14T07:51:19.531Z,19.30
2018-07-14T07:54:00.246Z,19.00
2018-07-14T07:56:28.453Z,19.00
2018-07-14T07:59:09.042Z,19.30
2018-07-14T08:01:37.280Z,19.40
2018-07-14T08:04:17.536Z,19.40
2018-07-14T08:06:58.285Z,19.30
2018-07-14T08:09:39.202Z,19.40
2018-07-14T08:12:07.417Z,19.40
2018-07-14T08:14:48.249Z,19.40
2018-07-14T08:17:28.913Z,19.50
2018-07-14T08:20:09.471Z,19.70
2018-07-14T08:22:50.463Z,19.80
2018-07-14T08:25:31.301Z,19.90
2018-07-14T08:28:00.189Z,20.00
2018-07-14T08:30:40.370Z,20.00
2018-07-14T08:33:20.967Z,20.10
2018-07-14T08:36:01.731Z,20.20
2018-07-14T08:38:42.614Z,20.20
2018-07-14T08:41:10.908Z,20.30
2018-07-14T08:43:39.272Z,20.30
2018-07-14T08:46:19.774Z,20.40
2018-07-14T08:49:00.474Z,20.40
2018-07-14T08:51:29.431Z,20.60
2018-07-14T08:54:10.873Z,20.60
2018-07-14T08:56:39.172Z,20.70
2018-07-14T08:59:13.565Z,20.70
2018-07-14T09:01:54.083Z,20.70
2018-07-14T09:04:26.542Z,20.60
2018-07-14T09:06:56.528Z,20.60
2018-07-14T09:09:24.812Z,20.70
2018-07-14T09:12:05.447Z,20.70
2018-07-14T09:14:46.119Z,20.70
2018-07-14T09:17:14.548Z,20.60
2018-07-14T09:19:55.323Z,20.60
2018-07-14T09:22:36.590Z,20.60
2018-07-14T09:25:05.150Z,20.60
2018-07-14T09:27:45.723Z,20.70
2018-07-14T09:30:26.329Z,20.70
2018-07-14T09:33:07.048Z,20.70
2018-07-14T09:35:47.778Z,20.70
2018-07-14T09:38:28.428Z,20.60
2018-07-14T09:41:00.272Z,20.60
2018-07-14T09:43:28.626Z,20.60
2018-07-14T09:45:56.920Z,20.70
2018-07-14T09:48:37.795Z,20.80
2018-07-14T09:51:18.465Z,21.00
2018-07-14T09:53:46.794Z,21.10
2018-07-14T09:56:15.095Z,21.20
2018-07-14T09:58:55.740Z,21.30
2018-07-14T10:01:36.571Z,21.50
2018-07-14T10:04:17.115Z,21.70
2018-07-14T10:06:58.132Z,21.80
2018-07-14T10:09:38.777Z,21.90
2018-07-14T10:12:07.230Z,22.10
2018-07-14T10:14:48.048Z,22.20
2018-07-14T10:17:16.305Z,22.20
2018-07-14T10:19:56.528Z,22.20
2018-07-14T10:22:24.758Z,22.20
2018-07-14T10:25:04.938Z,22.20
2018-07-14T10:27:36.145Z,22.40
2018-07-14T10:30:16.386Z,22.50
2018-07-14T10:32:44.761Z,22.60
2018-07-14T10:35:24.959Z,22.60
2018-07-14T10:37:53.184Z,22.60
2018-07-14T10:40:21.380Z,22.60
2018-07-14T10:43:02.357Z,22.60
2018-07-14T10:45:43.016Z,22.80
2018-07-14T10:48:11.726Z,23.70
2018-07-14T10:50:40.080Z,24.90
2018-07-14T10:53:10.003Z,25.90
2018-07-14T10:55:51.015Z,27.40
2018-07-14T10:58:19.307Z,29.20
2018-07-14T11:00:55.953Z,30.20
2018-07-14T11:03:25.810Z,30.10
2018-07-14T11:05:54.022Z,29.90
2018-07-14T11:08:22.812Z,30.40
2018-07-14T11:11:03.521Z,31.30
2018-07-14T11:13:31.745Z,31.40
2018-07-14T11:16:12.781Z,32.80
2018-07-14T11:18:53.467Z,34.00
2018-07-14T11:21:22.556Z,34.20
2018-07-14T11:24:02.925Z,34.30
2018-07-14T11:26:43.504Z,34.40
2018-07-14T11:29:11.768Z,35.00
2018-07-14T11:31:39.916Z,34.90
2018-07-14T11:34:20.600Z,34.30
2018-07-14T11:37:01.327Z,33.70
2018-07-14T11:39:42.137Z,33.90
2018-07-14T11:42:10.397Z,35.00
2018-07-14T11:44:38.687Z,35.30
2018-07-14T11:47:07.012Z,35.80
2018-07-14T11:49:35.171Z,36.60
2018-07-14T11:52:15.400Z,37.20
2018-07-14T11:54:55.901Z,37.30
2018-07-14T11:57:36.534Z,36.00
2018-07-14T12:00:17.113Z,35.00
2018-07-14T12:02:58.578Z,34.90
2018-07-14T12:05:39.388Z,35.40
2018-07-14T12:08:20.062Z,36.20
2018-07-14T12:11:00.586Z,35.30
2018-07-14T12:13:28.857Z,35.30
2018-07-14T12:16:09.798Z,35.80
2018-07-14T12:18:38.021Z,35.80
2018-07-14T12:21:19.128Z,34.90
2018-07-14T12:23:59.822Z,34.10
2018-07-14T12:26:40.550Z,34.10
2018-07-14T12:29:21.107Z,34.80
2018-07-14T12:32:01.722Z,35.10
2018-07-14T12:34:30.490Z,34.60
2018-07-14T12:36:59.313Z,32.80
2018-07-14T12:39:29.393Z,31.00
2018-07-14T12:42:09.649Z,29.80
2018-07-14T12:44:37.975Z,29.30
2018-07-14T12:47:06.226Z,29.10
2018-07-14T12:49:34.479Z,28.70
2018-07-14T12:52:15.619Z,28.40
2018-07-14T12:54:56.145Z,28.30
2018-07-14T12:57:24.344Z,27.90
2018-07-14T13:00:04.599Z,27.60
2018-07-14T13:02:32.738Z,27.20
2018-07-14T13:05:13.281Z,27.10
2018-07-14T13:07:53.730Z,27.00
2018-07-14T13:10:34.315Z,27.00
2018-07-14T13:13:14.949Z,27.10
2018-07-14T13:15:43.160Z,27.00
2018-07-14T13:18:23.624Z,26.90
2018-07-14T13:21:04.253Z,26.40
2018-07-14T13:23:44.794Z,26.20
2018-07-14T13:26:12.988Z,25.80
2018-07-14T13:28:41.142Z,25.70
2018-07-14T13:31:09.910Z,25.90
2018-07-14T13:33:38.668Z,26.10
2018-07-14T13:36:19.011Z,26.30
2018-07-14T13:38:51.734Z,26.10
2018-07-14T13:41:28.408Z,26.50
2018-07-14T13:43:56.585Z,26.30
2018-07-14T13:46:31.141Z,26.30
2018-07-14T13:48:59.548Z,26.20
2018-07-14T13:51:28.462Z,26.30
2018-07-14T13:53:58.652Z,26.20
2018-07-14T13:56:27.040Z,26.30
2018-07-14T13:59:07.568Z,26.40
2018-07-14T14:01:48.252Z,26.50
2018-07-14T14:04:20.435Z,26.50
2018-07-14T14:07:00.733Z,26.60
2018-07-14T14:09:30.596Z,26.60
2018-07-14T14:11:58.778Z,26.90
2018-07-14T14:14:27.058Z,26.60
2018-07-14T14:17:07.929Z,26.90
2018-07-14T14:19:38.158Z,27.10
2018-07-14T14:22:06.594Z,27.10
2018-07-14T14:24:37.538Z,27.00
2018-07-14T14:27:17.690Z,26.90
2018-07-14T14:29:58.706Z,26.90
2018-07-14T14:32:39.025Z,26.90
2018-07-14T14:35:19.753Z,26.80
2018-07-14T14:38:00.280Z,26.90
2018-07-14T14:40:40.877Z,26.90
2018-07-14T14:43:21.422Z,26.80
2018-07-14T14:46:01.927Z,26.80
2018-07-14T14:48:42.681Z,26.90
2018-07-14T14:51:23.385Z,26.60
2018-07-14T14:54:03.796Z,26.80
2018-07-14T14:56:44.409Z,26.90
2018-07-14T14:59:12.673Z,26.70
2018-07-14T15:01:53.216Z,26.70
2018-07-14T15:04:24.480Z,26.40
2018-07-14T15:06:52.740Z,26.30
2018-07-14T15:09:33.156Z,26.60
2018-07-14T15:12:13.721Z,26.90
2018-07-14T15:14:54.370Z,27.20
2018-07-14T15:17:35.098Z,27.60
2018-07-14T15:20:03.407Z,28.00
2018-07-14T15:22:31.660Z,28.40
2018-07-14T15:25:00.266Z,28.70
2018-07-14T15:27:41.459Z,29.00
2018-07-14T15:30:09.928Z,29.10
2018-07-14T15:32:41.501Z,29.30
2018-07-14T15:35:22.355Z,29.50
2018-07-14T15:37:52.102Z,29.60
2018-07-14T15:40:20.854Z,29.60
2018-07-14T15:42:50.642Z,29.70
2018-07-14T15:45:24.476Z,29.60
2018-07-14T15:47:56.771Z,29.30
2018-07-14T15:50:25.338Z,28.90
2018-07-14T15:52:53.670Z,28.40
2018-07-14T15:55:34.341Z,28.30
2018-07-14T15:58:04.592Z,28.40
2018-07-14T16:00:45.654Z,28.40
2018-07-14T16:03:26.296Z,28.10
2018-07-14T16:05:54.476Z,28.30
2018-07-14T16:08:35.795Z,28.30
2018-07-14T16:11:04.002Z,28.80
2018-07-14T16:13:32.302Z,28.80
2018-07-14T16:16:00.473Z,28.80
2018-07-14T16:18:41.023Z,29.40
2018-07-14T16:21:21.709Z,29.60
2018-07-14T16:24:02.202Z,29.50
2018-07-14T16:26:37.380Z,29.40
2018-07-14T16:29:05.677Z,29.30
2018-07-14T16:31:46.284Z,29.20
2018-07-14T16:34:26.921Z,29.40
2018-07-14T16:36:55.139Z,29.60
2018-07-14T16:39:23.448Z,30.40
2018-07-14T16:41:52.076Z,31.20
2018-07-14T16:44:20.324Z,31.80
2018-07-14T16:47:00.432Z,32.50
2018-07-14T16:49:28.851Z,32.70
2018-07-14T16:52:10.552Z,32.90
2018-07-14T16:54:38.905Z,32.70
2018-07-14T16:57:19.232Z,32.10
2018-07-14T16:59:48.043Z,30.70
2018-07-14T17:02:28.625Z,29.90
2018-07-14T17:04:56.877Z,29.60
2018-07-14T17:07:25.132Z,29.80
2018-07-14T17:09:53.331Z,29.80
2018-07-14T17:12:21.928Z,29.80
2018-07-14T17:15:02.737Z,29.90
2018-07-14T17:17:33.349Z,30.20
2018-07-14T17:20:01.664Z,30.40
2018-07-14T17:22:29.890Z,30.60
2018-07-14T17:24:58.140Z,30.50
2018-07-14T17:27:38.385Z,30.50
2018-07-14T17:30:06.686Z,29.80
2018-07-14T17:32:34.968Z,28.90
2018-07-14T17:35:05.383Z,28.50
2018-07-14T17:37:33.690Z,28.50
2018-07-14T17:40:04.622Z,28.90
2018-07-14T17:42:45.087Z,29.20
2018-07-14T17:45:25.625Z,28.90
2018-07-14T17:48:06.581Z,29.20
2018-07-14T17:50:47.012Z,29.20
2018-07-14T17:53:27.530Z,29.10
2018-07-14T17:55:55.717Z,29.10
2018-07-14T17:58:24.211Z,28.90
2018-07-14T18:01:04.893Z,28.50
2018-07-14T18:03:33.115Z,28.20
2018-07-14T18:06:01.512Z,28.50
2018-07-14T18:08:41.873Z,28.60
2018-07-14T18:11:15.653Z,28.40
2018-07-14T18:13:56.264Z,27.50
2018-07-14T18:16:26.698Z,26.80
2018-07-14T18:19:06.912Z,26.00
2018-07-14T18:21:47.538Z,25.80
2018-07-14T18:24:22.035Z,25.60
2018-07-14T18:26:53.591Z,25.50
2018-07-14T18:29:28.025Z,25.30
2018-07-14T18:32:03.306Z,25.20
2018-07-14T18:34:43.409Z,25.00
2018-07-14T18:37:24.023Z,24.90
2018-07-14T18:39:52.296Z,24.80
2018-07-14T18:42:33.402Z,24.70
2018-07-14T18:45:13.834Z,24.60
2018-07-14T18:47:42.124Z,24.40
2018-07-14T18:50:22.329Z,24.40
2018-07-14T18:53:02.728Z,24.30
2018-07-14T18:55:30.926Z,24.20
2018-07-14T18:57:59.140Z,24.10
2018-07-14T19:00:27.335Z,24.10
2018-07-14T19:03:07.782Z,24.00
2018-07-14T19:05:48.300Z,23.80
2018-07-14T19:08:16.560Z,23.50
2018-07-14T19:10:56.912Z,23.20
2018-07-14T19:13:27.328Z,22.90
2018-07-14T19:16:07.464Z,22.80
2018-07-14T19:18:35.924Z,22.70
2018-07-14T19:21:16.752Z,22.40
2018-07-14T19:23:57.249Z,22.30
2018-07-14T19:26:37.954Z,22.10
2018-07-14T19:29:18.456Z,22.10
2018-07-14T19:31:46.882Z,22.20
2018-07-14T19:34:15.224Z,22.20
2018-07-14T19:36:48.627Z,22.10
2018-07-14T19:39:16.806Z,22.00
2018-07-14T19:41:57.813Z,21.90
2018-07-14T19:44:26.055Z,21.80
2018-07-14T19:47:00.084Z,21.70
2018-07-14T19:49:29.992Z,21.90
2018-07-14T19:52:02.747Z,21.80
2018-07-14T19:54:43.148Z,21.90
2018-07-14T19:57:11.399Z,21.90
2018-07-14T19:59:51.665Z,22.00
2018-07-14T20:02:19.893Z,22.00
2018-07-14T20:04:59.989Z,21.90
2018-07-14T20:07:28.321Z,21.80
2018-07-14T20:09:56.497Z,21.80
2018-07-14T20:12:26.222Z,21.80
2018-07-14T20:14:58.161Z,21.80
2018-07-14T20:17:26.367Z,21.70
2018-07-14T20:19:55.164Z,21.70
2018-07-14T20:22:25.063Z,21.70
2018-07-14T20:25:00.747Z,21.50
2018-07-14T20:27:29.013Z,21.40
2018-07-14T20:30:09.302Z,21.40
2018-07-14T20:32:38.815Z,21.40
2018-07-14T20:35:19.730Z,21.30
2018-07-14T20:37:48.095Z,21.40
2018-07-14T20:40:28.357Z,21.30
2018-07-14T20:42:58.521Z,21.30
2018-07-14T20:45:38.786Z,21.30
2018-07-14T20:48:19.512Z,21.20
2018-07-14T20:51:00.367Z,21.10
2018-07-14T20:53:41.098Z,20.80
2018-07-14T20:56:09.408Z,20.80
2018-07-14T20:58:50.409Z,20.80
2018-07-14T21:01:18.686Z,20.90
2018-07-14T21:03:58.766Z,20.80
2018-07-14T21:06:39.256Z,20.80
2018-07-14T21:09:07.798Z,20.70
2018-07-14T21:11:48.902Z,20.70
2018-07-14T21:14:17.754Z,20.70
2018-07-14T21:16:45.963Z,20.70
2018-07-14T21:19:26.958Z,20.40
2018-07-14T21:21:55.170Z,20.50
2018-07-14T21:24:23.499Z,20.40
2018-07-14T21:27:04.387Z,20.30
2018-07-14T21:29:32.605Z,20.20
2018-07-14T21:32:13.633Z,20.30
2018-07-14T21:34:54.263Z,20.30
2018-07-14T21:37:34.890Z,20.30
2018-07-14T21:40:03.143Z,20.30
2018-07-14T21:42:31.415Z,20.20
2018-07-14T21:45:12.309Z,20.30
2018-07-14T21:47:52.921Z,20.20
2018-07-14T21:50:21.180Z,20.30
2018-07-14T21:53:01.290Z,20.30
2018-07-14T21:55:41.891Z,20.20
2018-07-14T21:58:22.384Z,20.10
2018-07-14T22:01:08.357Z,20.00
2018-07-14T22:03:36.629Z,19.90
2018-07-14T22:06:18.389Z,19.80
2018-07-14T22:08:46.592Z,19.60
2018-07-14T22:11:27.395Z,19.50
2018-07-14T22:14:07.996Z,19.40
2018-07-14T22:16:48.738Z,19.40
2018-07-14T22:19:29.348Z,19.40
2018-07-14T22:22:10.014Z,19.30
2018-07-14T22:24:38.232Z,19.20
2018-07-14T22:27:18.376Z,19.20
2018-07-14T22:29:58.960Z,19.00
2018-07-14T22:32:30.386Z,18.90
2018-07-14T22:35:04.649Z,18.90
2018-07-14T22:37:33.487Z,18.80
2018-07-14T22:40:14.026Z,18.80
2018-07-14T22:42:54.704Z,18.70
2018-07-14T22:45:22.957Z,18.70
2018-07-14T22:48:04.066Z,18.60
2018-07-14T22:50:44.673Z,18.60
2018-07-14T22:53:25.297Z,18.60
2018-07-14T22:56:05.950Z,18.70
2018-07-14T22:58:46.459Z,18.50
2018-07-14T23:01:27.275Z,18.60
2018-07-14T23:04:07.968Z,18.70
2018-07-14T23:06:36.434Z,18.60
2018-07-14T23:09:06.752Z,18.60
2018-07-14T23:11:47.133Z,18.60
2018-07-14T23:14:15.456Z,18.80
2018-07-14T23:16:55.749Z,18.70
2018-07-14T23:19:36.491Z,18.70
2018-07-14T23:22:17.130Z,18.70
2018-07-14T23:24:57.705Z,18.70
2018-07-14T23:27:25.894Z,18.70
2018-07-14T23:29:55.195Z,18.90
2018-07-14T23:32:35.922Z,19.00
2018-07-14T23:35:16.613Z,19.00
2018-07-14T23:37:57.445Z,19.10
2018-07-14T23:40:38.175Z,19.10
2018-07-14T23:43:18.965Z,19.10
2018-07-14T23:45:59.634Z,19.00
2018-07-14T23:48:27.864Z,18.90
2018-07-14T23:51:08.262Z,18.90
2018-07-14T23:53:48.655Z,18.90
2018-07-14T23:56:16.921Z,18.80
2018-07-14T23:58:57.005Z,18.70
